sensor_id;sensor_type;location;lat;lon;timestamp;P1;durP1;ratioP1;P2;durP2;ratioP2
57321;SDS011;43159;51.006;18.224;2022-09-12T00:01:31;14.50;;;6.70;;
57321;SDS011;43159;51.006;18.224;2022-09-12T00:03:58;12.30;;;6.30;;
57321;SDS011;43159;51.006;18.224;2022-09-12T00:06:29;13.10;;;6.60;;
57321;SDS011;43159;51.006;18.224;2022-09-12T00:09:00;14.10;;;6.70;;
57321;SDS011;43159;51.006;18.224;2022-09-12T00:11:28;14.60;;;6.60;;
57321;SDS011;43159;51.006;18.224;2022-09-12T00:13:57;13.60;;;6.40;;
57321;SDS011;43159;51.006;18.224;2022-09-12T00:16:25;14.50;;;6.80;;
57321;SDS011;43159;51.006;18.224;2022-09-12T00:18:52;14.30;;;6.80;;
57321;SDS011;43159;51.006;18.224;2022-09-12T00:21:18;12.50;;;6.30;;
57321;SDS011;43159;51.006;18.224;2022-09-12T00:23:44;14.30;;;6.80;;
57321;SDS011;43159;51.006;18.224;2022-09-12T00:26:10;14.50;;;6.80;;
57321;SDS011;43159;51.006;18.224;2022-09-12T00:28:37;13.40;;;6.50;;
57321;SDS011;43159;51.006;18.224;2022-09-12T00:31:05;14.50;;;6.60;;
57321;SDS011;43159;51.006;18.224;2022-09-12T00:33:31;14.50;;;6.70;;
57321;SDS011;43159;51.006;18.224;2022-09-12T00:35:58;14.30;;;6.70;;
57321;SDS011;43159;51.006;18.224;2022-09-12T00:38:24;14.10;;;6.40;;
57321;SDS011;43159;51.006;18.224;2022-09-12T00:40:49;16.30;;;6.20;;
57321;SDS011;43159;51.006;18.224;2022-09-12T00:46:12;13.70;;;6.50;;
57321;SDS011;43159;51.006;18.224;2022-09-12T00:48:51;14.00;;;6.30;;
57321;SDS011;43159;51.006;18.224;2022-09-12T00:51:31;13.30;;;6.30;;
57321;SDS011;43159;51.006;18.224;2022-09-12T00:53:59;14.10;;;6.10;;
57321;SDS011;43159;51.006;18.224;2022-09-12T00:56:28;13.80;;;6.00;;
57321;SDS011;43159;51.006;18.224;2022-09-12T00:58:55;14.90;;;6.20;;
57321;SDS011;43159;51.006;18.224;2022-09-12T01:01:25;13.10;;;6.20;;
57321;SDS011;43159;51.006;18.224;2022-09-12T01:03:51;14.10;;;6.20;;
57321;SDS011;43159;51.006;18.224;2022-09-12T01:06:20;14.30;;;6.40;;
57321;SDS011;43159;51.006;18.224;2022-09-12T01:08:49;14.90;;;6.50;;
57321;SDS011;43159;51.006;18.224;2022-09-12T01:11:15;14.70;;;6.60;;
57321;SDS011;43159;51.006;18.224;2022-09-12T01:13:41;14.50;;;6.40;;
57321;SDS011;43159;51.006;18.224;2022-09-12T01:16:08;14.10;;;6.50;;
57321;SDS011;43159;51.006;18.224;2022-09-12T01:35:23;14.80;;;6.60;;
57321;SDS011;43159;51.006;18.224;2022-09-12T01:38:03;15.40;;;6.90;;
57321;SDS011;43159;51.006;18.224;2022-09-12T01:49:09;13.20;;;6.30;;
57321;SDS011;43159;51.006;18.224;2022-09-12T01:51:59;13.50;;;6.50;;
57321;SDS011;43159;51.006;18.224;2022-09-12T01:54:32;13.70;;;5.90;;
57321;SDS011;43159;51.006;18.224;2022-09-12T01:57:02;13.50;;;6.10;;
57321;SDS011;43159;51.006;18.224;2022-09-12T01:59:35;13.80;;;6.00;;
57321;SDS011;43159;51.006;18.224;2022-09-12T02:02:08;13.30;;;6.20;;
57321;SDS011;43159;51.006;18.224;2022-09-12T02:04:40;16.90;;;6.80;;
57321;SDS011;43159;51.006;18.224;2022-09-12T02:07:13;15.30;;;7.70;;
57321;SDS011;43159;51.006;18.224;2022-09-12T02:09:47;19.60;;;11.30;;
57321;SDS011;43159;51.006;18.224;2022-09-12T02:12:36;24.10;;;14.30;;
57321;SDS011;43159;51.006;18.224;2022-09-12T02:15:11;28.00;;;16.90;;
57321;SDS011;43159;51.006;18.224;2022-09-12T02:17:38;19.90;;;11.40;;
57321;SDS011;43159;51.006;18.224;2022-09-12T02:20:17;26.20;;;12.20;;
57321;SDS011;43159;51.006;18.224;2022-09-12T02:22:44;15.50;;;7.70;;
57321;SDS011;43159;51.006;18.224;2022-09-12T02:25:10;14.40;;;7.00;;
57321;SDS011;43159;51.006;18.224;2022-09-12T02:27:40;14.80;;;6.60;;
57321;SDS011;43159;51.006;18.224;2022-09-12T02:30:09;15.80;;;6.90;;
57321;SDS011;43159;51.006;18.224;2022-09-12T02:32:43;15.80;;;7.00;;
57321;SDS011;43159;51.006;18.224;2022-09-12T02:35:11;14.20;;;7.10;;
57321;SDS011;43159;51.006;18.224;2022-09-12T02:37:55;16.60;;;7.30;;
57321;SDS011;43159;51.006;18.224;2022-09-12T02:40:26;15.70;;;7.20;;
57321;SDS011;43159;51.006;18.224;2022-09-12T02:42:52;13.60;;;6.70;;
57321;SDS011;43159;51.006;18.224;2022-09-12T02:45:17;15.20;;;6.70;;
57321;SDS011;43159;51.006;18.224;2022-09-12T02:47:47;16.10;;;7.20;;
57321;SDS011;43159;51.006;18.224;2022-09-12T02:50:16;16.40;;;6.90;;
57321;SDS011;43159;51.006;18.224;2022-09-12T02:52:41;15.60;;;7.10;;
57321;SDS011;43159;51.006;18.224;2022-09-12T02:55:08;13.90;;;7.10;;
57321;SDS011;43159;51.006;18.224;2022-09-12T02:57:36;14.00;;;7.10;;
57321;SDS011;43159;51.006;18.224;2022-09-12T03:00:02;14.00;;;7.10;;
57321;SDS011;43159;51.006;18.224;2022-09-12T03:02:31;18.00;;;7.30;;
57321;SDS011;43159;51.006;18.224;2022-09-12T03:05:15;14.90;;;7.00;;
57321;SDS011;43159;51.006;18.224;2022-09-12T03:10:50;17.00;;;7.10;;
57321;SDS011;43159;51.006;18.224;2022-09-12T03:19:22;15.40;;;7.20;;
57321;SDS011;43159;51.006;18.224;2022-09-12T03:22:14;15.70;;;7.40;;
57321;SDS011;43159;51.006;18.224;2022-09-12T03:27:25;13.70;;;6.50;;
57321;SDS011;43159;51.006;18.224;2022-09-12T03:29:53;14.80;;;6.90;;
57321;SDS011;43159;51.006;18.224;2022-09-12T03:32:20;13.60;;;6.80;;
57321;SDS011;43159;51.006;18.224;2022-09-12T03:35:11;15.00;;;7.10;;
57321;SDS011;43159;51.006;18.224;2022-09-12T03:37:37;15.40;;;6.40;;
57321;SDS011;43159;51.006;18.224;2022-09-12T03:40:03;13.80;;;6.60;;
57321;SDS011;43159;51.006;18.224;2022-09-12T03:42:30;14.20;;;6.30;;
57321;SDS011;43159;51.006;18.224;2022-09-12T03:44:56;14.50;;;6.50;;
57321;SDS011;43159;51.006;18.224;2022-09-12T03:47:22;14.60;;;6.60;;
57321;SDS011;43159;51.006;18.224;2022-09-12T03:49:48;13.90;;;6.30;;
57321;SDS011;43159;51.006;18.224;2022-09-12T03:52:14;15.10;;;5.80;;
57321;SDS011;43159;51.006;18.224;2022-09-12T03:54:39;13.90;;;6.10;;
57321;SDS011;43159;51.006;18.224;2022-09-12T03:57:05;15.90;;;6.40;;
57321;SDS011;43159;51.006;18.224;2022-09-12T03:59:31;14.40;;;6.00;;
57321;SDS011;43159;51.006;18.224;2022-09-12T04:01:56;12.40;;;5.90;;
57321;SDS011;43159;51.006;18.224;2022-09-12T04:04:22;14.10;;;6.00;;
57321;SDS011;43159;51.006;18.224;2022-09-12T04:06:47;14.30;;;6.10;;
57321;SDS011;43159;51.006;18.224;2022-09-12T04:09:13;13.20;;;6.30;;
57321;SDS011;43159;51.006;18.224;2022-09-12T04:11:39;15.50;;;6.00;;
57321;SDS011;43159;51.006;18.224;2022-09-12T04:14:05;13.90;;;5.90;;
57321;SDS011;43159;51.006;18.224;2022-09-12T04:16:30;13.80;;;5.90;;
57321;SDS011;43159;51.006;18.224;2022-09-12T04:18:57;12.30;;;5.60;;
57321;SDS011;43159;51.006;18.224;2022-09-12T04:21:23;13.50;;;5.70;;
57321;SDS011;43159;51.006;18.224;2022-09-12T04:23:49;12.00;;;5.50;;
57321;SDS011;43159;51.006;18.224;2022-09-12T04:26:15;14.20;;;6.00;;
57321;SDS011;43159;51.006;18.224;2022-09-12T04:28:42;13.00;;;5.80;;
57321;SDS011;43159;51.006;18.224;2022-09-12T04:31:15;13.50;;;5.60;;
57321;SDS011;43159;51.006;18.224;2022-09-12T04:33:42;12.80;;;5.50;;
57321;SDS011;43159;51.006;18.224;2022-09-12T04:36:13;14.50;;;5.70;;
57321;SDS011;43159;51.006;18.224;2022-09-12T04:38:43;12.90;;;5.90;;
57321;SDS011;43159;51.006;18.224;2022-09-12T04:41:12;14.20;;;6.00;;
57321;SDS011;43159;51.006;18.224;2022-09-12T04:43:40;14.60;;;6.10;;
57321;SDS011;43159;51.006;18.224;2022-09-12T04:46:06;13.80;;;5.90;;
57321;SDS011;43159;51.006;18.224;2022-09-12T04:48:33;13.60;;;6.30;;
57321;SDS011;43159;51.006;18.224;2022-09-12T04:51:06;13.80;;;6.10;;
57321;SDS011;43159;51.006;18.224;2022-09-12T04:53:34;14.90;;;6.40;;
57321;SDS011;43159;51.006;18.224;2022-09-12T04:56:02;14.00;;;6.00;;
57321;SDS011;43159;51.006;18.224;2022-09-12T04:58:30;12.10;;;5.90;;
57321;SDS011;43159;51.006;18.224;2022-09-12T05:01:02;12.60;;;5.80;;
57321;SDS011;43159;51.006;18.224;2022-09-12T05:03:31;15.20;;;6.00;;
57321;SDS011;43159;51.006;18.224;2022-09-12T05:05:57;12.00;;;5.90;;
57321;SDS011;43159;51.006;18.224;2022-09-12T05:08:23;13.80;;;6.10;;
57321;SDS011;43159;51.006;18.224;2022-09-12T05:10:48;14.10;;;6.10;;
57321;SDS011;43159;51.006;18.224;2022-09-12T05:13:15;14.10;;;5.80;;
57321;SDS011;43159;51.006;18.224;2022-09-12T05:15:40;13.20;;;6.10;;
57321;SDS011;43159;51.006;18.224;2022-09-12T05:18:06;13.60;;;5.80;;
57321;SDS011;43159;51.006;18.224;2022-09-12T05:20:32;13.40;;;5.80;;
57321;SDS011;43159;51.006;18.224;2022-09-12T05:22:57;15.60;;;5.90;;
57321;SDS011;43159;51.006;18.224;2022-09-12T05:25:24;14.80;;;5.60;;
57321;SDS011;43159;51.006;18.224;2022-09-12T05:27:53;13.60;;;5.60;;
57321;SDS011;43159;51.006;18.224;2022-09-12T05:30:19;11.50;;;5.00;;
57321;SDS011;43159;51.006;18.224;2022-09-12T05:32:45;12.00;;;4.90;;
57321;SDS011;43159;51.006;18.224;2022-09-12T05:35:11;11.80;;;4.80;;
57321;SDS011;43159;51.006;18.224;2022-09-12T05:37:36;12.10;;;4.70;;
57321;SDS011;43159;51.006;18.224;2022-09-12T05:40:02;12.80;;;4.80;;
57321;SDS011;43159;51.006;18.224;2022-09-12T05:42:31;11.70;;;5.10;;
57321;SDS011;43159;51.006;18.224;2022-09-12T05:44:57;13.50;;;5.10;;
57321;SDS011;43159;51.006;18.224;2022-09-12T05:47:23;12.00;;;4.70;;
57321;SDS011;43159;51.006;18.224;2022-09-12T05:49:50;11.30;;;4.60;;
57321;SDS011;43159;51.006;18.224;2022-09-12T05:52:17;11.00;;;4.70;;
57321;SDS011;43159;51.006;18.224;2022-09-12T05:54:42;12.40;;;4.50;;
57321;SDS011;43159;51.006;18.224;2022-09-12T05:57:08;12.20;;;4.50;;
57321;SDS011;43159;51.006;18.224;2022-09-12T05:59:34;12.10;;;4.50;;
57321;SDS011;43159;51.006;18.224;2022-09-12T06:02:00;11.40;;;4.20;;
57321;SDS011;43159;51.006;18.224;2022-09-12T06:04:25;11.30;;;4.10;;
57321;SDS011;43159;51.006;18.224;2022-09-12T06:06:52;11.20;;;4.10;;
57321;SDS011;43159;51.006;18.224;2022-09-12T06:09:18;10.20;;;4.20;;
57321;SDS011;43159;51.006;18.224;2022-09-12T06:11:44;10.20;;;4.10;;
57321;SDS011;43159;51.006;18.224;2022-09-12T06:14:11;11.00;;;4.10;;
57321;SDS011;43159;51.006;18.224;2022-09-12T06:16:38;11.00;;;3.90;;
57321;SDS011;43159;51.006;18.224;2022-09-12T06:19:05;11.10;;;4.10;;
57321;SDS011;43159;51.006;18.224;2022-09-12T06:21:32;10.40;;;4.10;;
57321;SDS011;43159;51.006;18.224;2022-09-12T06:23:59;11.80;;;4.00;;
57321;SDS011;43159;51.006;18.224;2022-09-12T06:26:26;12.30;;;3.70;;
57321;SDS011;43159;51.006;18.224;2022-09-12T06:28:54;9.70;;;3.70;;
57321;SDS011;43159;51.006;18.224;2022-09-12T06:31:22;11.80;;;3.90;;
57321;SDS011;43159;51.006;18.224;2022-09-12T06:33:53;10.40;;;3.70;;
57321;SDS011;43159;51.006;18.224;2022-09-12T06:36:21;11.50;;;3.80;;
57321;SDS011;43159;51.006;18.224;2022-09-12T06:38:52;11.80;;;3.70;;
57321;SDS011;43159;51.006;18.224;2022-09-12T06:41:21;11.10;;;3.80;;
57321;SDS011;43159;51.006;18.224;2022-09-12T06:43:47;11.30;;;3.70;;
57321;SDS011;43159;51.006;18.224;2022-09-12T06:46:13;10.90;;;3.60;;
57321;SDS011;43159;51.006;18.224;2022-09-12T06:48:38;10.30;;;3.60;;
57321;SDS011;43159;51.006;18.224;2022-09-12T06:51:06;10.50;;;3.70;;
57321;SDS011;43159;51.006;18.224;2022-09-12T06:53:34;10.80;;;3.60;;
57321;SDS011;43159;51.006;18.224;2022-09-12T06:56:03;10.80;;;3.60;;
57321;SDS011;43159;51.006;18.224;2022-09-12T06:58:33;11.10;;;3.70;;
57321;SDS011;43159;51.006;18.224;2022-09-12T07:03:32;10.80;;;3.70;;
57321;SDS011;43159;51.006;18.224;2022-09-12T07:06:03;10.40;;;3.50;;
57321;SDS011;43159;51.006;18.224;2022-09-12T07:08:30;10.40;;;3.60;;
57321;SDS011;43159;51.006;18.224;2022-09-12T07:10:57;11.80;;;3.90;;
57321;SDS011;43159;51.006;18.224;2022-09-12T07:13:25;10.20;;;3.40;;
57321;SDS011;43159;51.006;18.224;2022-09-12T07:15:51;10.70;;;3.60;;
57321;SDS011;43159;51.006;18.224;2022-09-12T07:18:16;9.70;;;3.40;;
57321;SDS011;43159;51.006;18.224;2022-09-12T07:20:42;11.50;;;3.50;;
57321;SDS011;43159;51.006;18.224;2022-09-12T07:23:08;11.80;;;3.50;;
57321;SDS011;43159;51.006;18.224;2022-09-12T07:25:34;9.00;;;3.20;;
57321;SDS011;43159;51.006;18.224;2022-09-12T07:28:00;10.30;;;3.30;;
57321;SDS011;43159;51.006;18.224;2022-09-12T07:30:26;10.50;;;3.50;;
57321;SDS011;43159;51.006;18.224;2022-09-12T07:32:52;11.50;;;3.50;;
57321;SDS011;43159;51.006;18.224;2022-09-12T07:35:18;10.90;;;3.30;;
57321;SDS011;43159;51.006;18.224;2022-09-12T07:37:44;12.30;;;3.70;;
57321;SDS011;43159;51.006;18.224;2022-09-12T07:40:10;10.70;;;3.50;;
57321;SDS011;43159;51.006;18.224;2022-09-12T07:42:36;11.20;;;3.30;;
57321;SDS011;43159;51.006;18.224;2022-09-12T07:45:01;10.90;;;3.40;;
57321;SDS011;43159;51.006;18.224;2022-09-12T07:47:27;9.70;;;3.10;;
57321;SDS011;43159;51.006;18.224;2022-09-12T07:49:53;11.00;;;3.30;;
57321;SDS011;43159;51.006;18.224;2022-09-12T07:52:18;10.30;;;3.40;;
57321;SDS011;43159;51.006;18.224;2022-09-12T07:54:44;10.40;;;3.50;;
57321;SDS011;43159;51.006;18.224;2022-09-12T07:57:09;10.70;;;3.30;;
57321;SDS011;43159;51.006;18.224;2022-09-12T07:59:36;10.10;;;3.40;;
57321;SDS011;43159;51.006;18.224;2022-09-12T08:02:10;11.50;;;3.40;;
57321;SDS011;43159;51.006;18.224;2022-09-12T08:04:38;13.20;;;3.60;;
57321;SDS011;43159;51.006;18.224;2022-09-12T08:07:04;10.70;;;3.40;;
57321;SDS011;43159;51.006;18.224;2022-09-12T08:09:31;12.70;;;3.80;;
57321;SDS011;43159;51.006;18.224;2022-09-12T08:11:56;10.30;;;3.30;;
57321;SDS011;43159;51.006;18.224;2022-09-12T08:14:23;11.00;;;3.50;;
57321;SDS011;43159;51.006;18.224;2022-09-12T08:16:48;10.30;;;3.50;;
57321;SDS011;43159;51.006;18.224;2022-09-12T08:19:14;12.00;;;3.50;;
57321;SDS011;43159;51.006;18.224;2022-09-12T08:21:39;11.60;;;3.50;;
57321;SDS011;43159;51.006;18.224;2022-09-12T08:24:05;11.60;;;3.50;;
57321;SDS011;43159;51.006;18.224;2022-09-12T08:26:31;11.80;;;3.70;;
57321;SDS011;43159;51.006;18.224;2022-09-12T08:28:58;10.30;;;3.30;;
57321;SDS011;43159;51.006;18.224;2022-09-12T08:31:25;10.70;;;3.70;;
57321;SDS011;43159;51.006;18.224;2022-09-12T08:33:53;10.80;;;3.40;;
57321;SDS011;43159;51.006;18.224;2022-09-12T08:36:21;11.20;;;3.50;;
57321;SDS011;43159;51.006;18.224;2022-09-12T08:38:50;13.10;;;3.40;;
57321;SDS011;43159;51.006;18.224;2022-09-12T08:41:28;10.50;;;3.60;;
57321;SDS011;43159;51.006;18.224;2022-09-12T08:46:31;12.20;;;3.50;;
57321;SDS011;43159;51.006;18.224;2022-09-12T08:49:03;12.30;;;3.60;;
57321;SDS011;43159;51.006;18.224;2022-09-12T08:51:30;11.40;;;3.20;;
57321;SDS011;43159;51.006;18.224;2022-09-12T08:53:58;11.20;;;3.20;;
57321;SDS011;43159;51.006;18.224;2022-09-12T08:56:25;10.70;;;3.30;;
57321;SDS011;43159;51.006;18.224;2022-09-12T08:58:52;10.90;;;3.30;;
57321;SDS011;43159;51.006;18.224;2022-09-12T09:12:00;12.00;;;3.30;;
57321;SDS011;43159;51.006;18.224;2022-09-12T09:20:09;9.80;;;3.20;;
57321;SDS011;43159;51.006;18.224;2022-09-12T09:28:16;12.70;;;3.60;;
57321;SDS011;43159;51.006;18.224;2022-09-12T09:30:45;11.50;;;3.20;;
57321;SDS011;43159;51.006;18.224;2022-09-12T09:33:14;11.40;;;3.10;;
57321;SDS011;43159;51.006;18.224;2022-09-12T09:43:55;10.10;;;2.90;;
57321;SDS011;43159;51.006;18.224;2022-09-12T09:46:22;10.60;;;3.20;;
57321;SDS011;43159;51.006;18.224;2022-09-12T09:48:48;10.90;;;3.10;;
57321;SDS011;43159;51.006;18.224;2022-09-12T09:51:20;10.10;;;3.00;;
57321;SDS011;43159;51.006;18.224;2022-09-12T09:53:51;11.30;;;3.00;;
57321;SDS011;43159;51.006;18.224;2022-09-12T10:01:53;12.40;;;3.00;;
57321;SDS011;43159;51.006;18.224;2022-09-12T10:04:23;10.20;;;3.10;;
57321;SDS011;43159;51.006;18.224;2022-09-12T10:06:52;11.20;;;3.00;;
57321;SDS011;43159;51.006;18.224;2022-09-12T10:09:25;9.10;;;2.90;;
57321;SDS011;43159;51.006;18.224;2022-09-12T10:11:53;12.40;;;2.90;;
57321;SDS011;43159;51.006;18.224;2022-09-12T10:14:33;11.10;;;2.90;;
57321;SDS011;43159;51.006;18.224;2022-09-12T10:17:02;11.00;;;2.90;;
57321;SDS011;43159;51.006;18.224;2022-09-12T10:19:48;9.40;;;2.80;;
57321;SDS011;43159;51.006;18.224;2022-09-12T10:22:18;8.90;;;2.80;;
57321;SDS011;43159;51.006;18.224;2022-09-12T10:24:47;8.80;;;2.70;;
57321;SDS011;43159;51.006;18.224;2022-09-12T10:27:27;10.00;;;2.70;;
57321;SDS011;43159;51.006;18.224;2022-09-12T10:32:27;10.10;;;2.70;;
57321;SDS011;43159;51.006;18.224;2022-09-12T10:40:07;8.30;;;2.50;;
57321;SDS011;43159;51.006;18.224;2022-09-12T10:42:47;8.80;;;2.50;;
57321;SDS011;43159;51.006;18.224;2022-09-12T10:45:20;9.60;;;2.80;;
57321;SDS011;43159;51.006;18.224;2022-09-12T10:47:51;11.60;;;3.10;;
57321;SDS011;43159;51.006;18.224;2022-09-12T10:50:22;9.20;;;3.00;;
57321;SDS011;43159;51.006;18.224;2022-09-12T10:52:52;10.20;;;2.80;;
57321;SDS011;43159;51.006;18.224;2022-09-12T10:55:20;12.20;;;3.00;;
57321;SDS011;43159;51.006;18.224;2022-09-12T11:00:33;11.60;;;3.10;;
57321;SDS011;43159;51.006;18.224;2022-09-12T11:03:22;9.80;;;2.70;;
57321;SDS011;43159;51.006;18.224;2022-09-12T11:05:57;10.00;;;2.90;;
57321;SDS011;43159;51.006;18.224;2022-09-12T11:08:34;10.80;;;2.80;;
57321;SDS011;43159;51.006;18.224;2022-09-12T11:14:29;10.20;;;2.90;;
57321;SDS011;43159;51.006;18.224;2022-09-12T11:17:02;9.40;;;2.80;;
57321;SDS011;43159;51.006;18.224;2022-09-12T11:19:40;9.50;;;2.90;;
57321;SDS011;43159;51.006;18.224;2022-09-12T11:25:06;9.20;;;2.60;;
57321;SDS011;43159;51.006;18.224;2022-09-12T11:30:15;9.50;;;2.80;;
57321;SDS011;43159;51.006;18.224;2022-09-12T11:32:54;10.60;;;3.00;;
57321;SDS011;43159;51.006;18.224;2022-09-12T11:35:27;12.20;;;3.00;;
57321;SDS011;43159;51.006;18.224;2022-09-12T11:40:41;10.20;;;3.00;;
57321;SDS011;43159;51.006;18.224;2022-09-12T11:43:41;10.00;;;3.00;;
57321;SDS011;43159;51.006;18.224;2022-09-12T11:51:59;9.90;;;2.80;;
57321;SDS011;43159;51.006;18.224;2022-09-12T11:57:07;10.50;;;2.70;;
57321;SDS011;43159;51.006;18.224;2022-09-12T11:59:44;9.60;;;2.50;;
57321;SDS011;43159;51.006;18.224;2022-09-12T12:02:20;7.70;;;2.30;;
57321;SDS011;43159;51.006;18.224;2022-09-12T12:07:42;8.90;;;2.60;;
57321;SDS011;43159;51.006;18.224;2022-09-12T12:10:21;9.90;;;2.60;;
57321;SDS011;43159;51.006;18.224;2022-09-12T12:12:50;8.60;;;2.70;;
57321;SDS011;43159;51.006;18.224;2022-09-12T12:15:16;8.90;;;2.60;;
57321;SDS011;43159;51.006;18.224;2022-09-12T12:17:42;10.40;;;2.80;;
57321;SDS011;43159;51.006;18.224;2022-09-12T12:20:14;9.30;;;2.70;;
57321;SDS011;43159;51.006;18.224;2022-09-12T12:22:51;9.60;;;2.80;;
57321;SDS011;43159;51.006;18.224;2022-09-12T12:32:59;9.30;;;2.80;;
57321;SDS011;43159;51.006;18.224;2022-09-12T12:37:59;9.80;;;2.80;;
57321;SDS011;43159;51.006;18.224;2022-09-12T12:40:26;10.10;;;2.90;;
57321;SDS011;43159;51.006;18.224;2022-09-12T12:42:57;9.80;;;3.00;;
57321;SDS011;43159;51.006;18.224;2022-09-12T12:47:55;8.40;;;2.50;;
57321;SDS011;43159;51.006;18.224;2022-09-12T12:50:25;10.20;;;2.90;;
57321;SDS011;43159;51.006;18.224;2022-09-12T12:52:52;8.90;;;2.70;;
57321;SDS011;43159;51.006;18.224;2022-09-12T12:57:59;9.20;;;2.50;;
57321;SDS011;43159;51.006;18.224;2022-09-12T13:00:27;9.00;;;2.50;;
57321;SDS011;43159;51.006;18.224;2022-09-12T13:03:00;8.30;;;2.60;;
57321;SDS011;43159;51.006;18.224;2022-09-12T13:05:39;10.00;;;3.20;;
57321;SDS011;43159;51.006;18.224;2022-09-12T13:10:55;10.60;;;3.00;;
57321;SDS011;43159;51.006;18.224;2022-09-12T13:16:03;9.30;;;2.60;;
57321;SDS011;43159;51.006;18.224;2022-09-12T13:18:32;8.60;;;2.50;;
57321;SDS011;43159;51.006;18.224;2022-09-12T13:21:11;9.10;;;2.70;;
57321;SDS011;43159;51.006;18.224;2022-09-12T13:23:38;8.10;;;2.40;;
57321;SDS011;43159;51.006;18.224;2022-09-12T13:26:11;8.60;;;2.60;;
57321;SDS011;43159;51.006;18.224;2022-09-12T13:28:38;9.30;;;2.50;;
57321;SDS011;43159;51.006;18.224;2022-09-12T13:31:19;8.10;;;2.40;;
57321;SDS011;43159;51.006;18.224;2022-09-12T13:33:58;9.60;;;2.50;;
57321;SDS011;43159;51.006;18.224;2022-09-12T13:39:37;9.40;;;2.60;;
57321;SDS011;43159;51.006;18.224;2022-09-12T13:45:10;9.70;;;2.70;;
57321;SDS011;43159;51.006;18.224;2022-09-12T13:47:59;8.80;;;2.50;;
57321;SDS011;43159;51.006;18.224;2022-09-12T13:50:27;8.90;;;2.40;;
57321;SDS011;43159;51.006;18.224;2022-09-12T13:52:57;8.20;;;2.60;;
57321;SDS011;43159;51.006;18.224;2022-09-12T13:57:58;8.10;;;2.50;;
57321;SDS011;43159;51.006;18.224;2022-09-12T14:00:25;9.40;;;2.50;;
57321;SDS011;43159;51.006;18.224;2022-09-12T14:02:52;12.20;;;2.80;;
57321;SDS011;43159;51.006;18.224;2022-09-12T14:05:38;8.80;;;2.50;;
57321;SDS011;43159;51.006;18.224;2022-09-12T14:08:06;8.70;;;2.60;;
57321;SDS011;43159;51.006;18.224;2022-09-12T14:10:33;8.50;;;2.60;;
57321;SDS011;43159;51.006;18.224;2022-09-12T14:13:01;9.20;;;2.40;;
57321;SDS011;43159;51.006;18.224;2022-09-12T14:15:31;8.60;;;2.40;;
57321;SDS011;43159;51.006;18.224;2022-09-12T14:18:01;8.40;;;2.60;;
57321;SDS011;43159;51.006;18.224;2022-09-12T14:20:29;8.70;;;2.60;;
57321;SDS011;43159;51.006;18.224;2022-09-12T14:23:01;10.10;;;2.80;;
57321;SDS011;43159;51.006;18.224;2022-09-12T14:25:29;9.50;;;2.50;;
57321;SDS011;43159;51.006;18.224;2022-09-12T14:28:01;8.50;;;2.50;;
57321;SDS011;43159;51.006;18.224;2022-09-12T14:30:34;8.90;;;2.60;;
57321;SDS011;43159;51.006;18.224;2022-09-12T14:33:02;9.30;;;2.70;;
57321;SDS011;43159;51.006;18.224;2022-09-12T14:35:29;10.50;;;3.00;;
57321;SDS011;43159;51.006;18.224;2022-09-12T14:37:56;8.00;;;2.50;;
57321;SDS011;43159;51.006;18.224;2022-09-12T14:40:42;9.50;;;2.80;;
57321;SDS011;43159;51.006;18.224;2022-09-12T14:43:17;9.30;;;2.70;;
57321;SDS011;43159;51.006;18.224;2022-09-12T14:46:13;10.20;;;2.90;;
57321;SDS011;43159;51.006;18.224;2022-09-12T14:48:50;10.30;;;2.70;;
57321;SDS011;43159;51.006;18.224;2022-09-12T14:51:21;9.00;;;2.80;;
57321;SDS011;43159;51.006;18.224;2022-09-12T14:53:50;8.50;;;2.80;;
57321;SDS011;43159;51.006;18.224;2022-09-12T14:56:15;8.80;;;2.70;;
57321;SDS011;43159;51.006;18.224;2022-09-12T14:58:41;10.80;;;2.80;;
57321;SDS011;43159;51.006;18.224;2022-09-12T15:03:34;9.10;;;2.80;;
57321;SDS011;43159;51.006;18.224;2022-09-12T15:06:02;8.80;;;2.60;;
57321;SDS011;43159;51.006;18.224;2022-09-12T15:08:29;8.90;;;2.40;;
57321;SDS011;43159;51.006;18.224;2022-09-12T15:10:56;8.70;;;2.50;;
57321;SDS011;43159;51.006;18.224;2022-09-12T15:13:23;8.60;;;2.40;;
57321;SDS011;43159;51.006;18.224;2022-09-12T15:18:23;8.90;;;2.30;;
57321;SDS011;43159;51.006;18.224;2022-09-12T15:20:54;9.20;;;2.50;;
57321;SDS011;43159;51.006;18.224;2022-09-12T15:23:29;8.80;;;2.40;;
57321;SDS011;43159;51.006;18.224;2022-09-12T15:26:00;8.40;;;2.30;;
57321;SDS011;43159;51.006;18.224;2022-09-12T15:28:27;7.40;;;2.10;;
57321;SDS011;43159;51.006;18.224;2022-09-12T15:30:54;8.60;;;2.20;;
57321;SDS011;43159;51.006;18.224;2022-09-12T15:33:20;8.00;;;2.30;;
57321;SDS011;43159;51.006;18.224;2022-09-12T15:35:48;9.60;;;2.30;;
57321;SDS011;43159;51.006;18.224;2022-09-12T15:38:14;7.70;;;2.40;;
57321;SDS011;43159;51.006;18.224;2022-09-12T15:40:40;8.70;;;2.30;;
57321;SDS011;43159;51.006;18.224;2022-09-12T15:43:05;8.10;;;2.40;;
57321;SDS011;43159;51.006;18.224;2022-09-12T15:45:32;9.90;;;2.60;;
57321;SDS011;43159;51.006;18.224;2022-09-12T15:47:58;9.20;;;2.50;;
57321;SDS011;43159;51.006;18.224;2022-09-12T15:50:25;8.70;;;2.50;;
57321;SDS011;43159;51.006;18.224;2022-09-12T15:52:52;9.80;;;2.60;;
57321;SDS011;43159;51.006;18.224;2022-09-12T15:55:21;9.10;;;2.40;;
57321;SDS011;43159;51.006;18.224;2022-09-12T15:57:54;7.70;;;2.20;;
57321;SDS011;43159;51.006;18.224;2022-09-12T16:00:20;9.30;;;2.40;;
57321;SDS011;43159;51.006;18.224;2022-09-12T16:02:48;9.30;;;2.40;;
57321;SDS011;43159;51.006;18.224;2022-09-12T16:05:16;7.70;;;2.30;;
57321;SDS011;43159;51.006;18.224;2022-09-12T16:07:46;8.20;;;2.30;;
57321;SDS011;43159;51.006;18.224;2022-09-12T16:10:17;8.80;;;2.30;;
57321;SDS011;43159;51.006;18.224;2022-09-12T16:12:44;9.80;;;2.70;;
57321;SDS011;43159;51.006;18.224;2022-09-12T16:15:11;9.70;;;2.50;;
57321;SDS011;43159;51.006;18.224;2022-09-12T16:17:41;10.60;;;2.60;;
57321;SDS011;43159;51.006;18.224;2022-09-12T16:20:07;10.00;;;2.80;;
57321;SDS011;43159;51.006;18.224;2022-09-12T16:22:33;10.90;;;2.80;;
57321;SDS011;43159;51.006;18.224;2022-09-12T16:24:58;9.60;;;2.70;;
57321;SDS011;43159;51.006;18.224;2022-09-12T16:27:24;10.20;;;2.70;;
57321;SDS011;43159;51.006;18.224;2022-09-12T16:29:49;10.20;;;2.70;;
57321;SDS011;43159;51.006;18.224;2022-09-12T16:32:16;10.40;;;2.70;;
57321;SDS011;43159;51.006;18.224;2022-09-12T16:34:42;8.90;;;2.70;;
57321;SDS011;43159;51.006;18.224;2022-09-12T16:37:07;10.20;;;2.80;;
57321;SDS011;43159;51.006;18.224;2022-09-12T16:39:33;9.50;;;3.00;;
57321;SDS011;43159;51.006;18.224;2022-09-12T16:41:59;9.50;;;2.80;;
57321;SDS011;43159;51.006;18.224;2022-09-12T16:44:24;10.80;;;2.90;;
57321;SDS011;43159;51.006;18.224;2022-09-12T16:46:50;9.90;;;2.90;;
57321;SDS011;43159;51.006;18.224;2022-09-12T16:49:15;10.00;;;2.70;;
57321;SDS011;43159;51.006;18.224;2022-09-12T16:51:41;10.70;;;2.90;;
57321;SDS011;43159;51.006;18.224;2022-09-12T16:54:12;11.10;;;3.30;;
57321;SDS011;43159;51.006;18.224;2022-09-12T16:56:39;11.60;;;3.40;;
57321;SDS011;43159;51.006;18.224;2022-09-12T16:59:05;10.80;;;3.10;;
57321;SDS011;43159;51.006;18.224;2022-09-12T17:01:31;9.90;;;3.40;;
57321;SDS011;43159;51.006;18.224;2022-09-12T17:03:59;10.70;;;3.70;;
57321;SDS011;43159;51.006;18.224;2022-09-12T17:06:24;11.40;;;4.00;;